createdAt,value
2019-03-22T00:03:27.818Z,86.70
2019-03-22T00:08:32.129Z,86.60
2019-03-22T00:13:36.420Z,86.70
2019-03-22T00:18:41.054Z,87.70
2019-03-22T00:23:45.745Z,86.10
2019-03-22T00:28:51.937Z,88.00
2019-03-22T00:33:59.595Z,87.30
2019-03-22T00:39:05.201Z,86.00
2019-03-22T00:44:10.318Z,86.40
2019-03-22T00:49:14.706Z,85.80
2019-03-22T00:54:22.453Z,87.30
2019-03-22T00:59:26.842Z,89.30
2019-03-22T01:04:31.355Z,86.60
2019-03-22T01:09:35.671Z,86.10
2019-03-22T01:14:40.343Z,85.80
2019-03-22T01:19:45.152Z,86.50
2019-03-22T01:24:50.411Z,88.20
2019-03-22T01:29:55.791Z,87.90
2019-03-22T01:35:00.427Z,88.80
2019-03-22T01:40:07.048Z,90.90
2019-03-22T01:45:12.934Z,91.00
2019-03-22T01:50:17.489Z,88.70
2019-03-22T01:55:22.762Z,90.90
2019-03-22T02:00:29.386Z,91.70
2019-03-22T02:05:36.959Z,90.20
2019-03-22T02:11:01.296Z,89.40
2019-03-22T02:16:05.727Z,88.90
2019-03-22T02:21:10.140Z,89.60
2019-03-22T02:26:19.376Z,89.00
2019-03-22T02:31:25.296Z,91.70
2019-03-22T02:36:30.848Z,94.90
2019-03-22T02:41:35.541Z,93.40
2019-03-22T02:46:40.232Z,92.40
2019-03-22T02:51:46.193Z,90.10
2019-03-22T02:56:54.831Z,88.50
2019-03-22T03:02:00.770Z,88.10
2019-03-22T03:07:05.160Z,90.20
2019-03-22T03:12:11.158Z,88.70
2019-03-22T03:17:17.106Z,87.50
2019-03-22T03:22:25.919Z,88.20
2019-03-22T03:27:30.762Z,89.20
2019-03-22T03:32:35.104Z,87.70
2019-03-22T03:37:40.311Z,88.60
2019-03-22T03:42:48.756Z,88.00
2019-03-22T03:47:53.683Z,87.60
2019-03-22T03:52:59.510Z,88.60
2019-03-22T03:58:04.020Z,89.00
2019-03-22T04:03:08.321Z,90.10
2019-03-22T04:08:12.709Z,89.10
2019-03-22T04:13:17.537Z,90.80
2019-03-22T04:18:21.959Z,91.60
2019-03-22T04:23:26.279Z,88.90
2019-03-22T04:28:31.206Z,88.60
2019-03-22T04:33:35.921Z,89.70
2019-03-22T04:38:45.483Z,88.30
2019-03-22T04:43:50.133Z,88.30
2019-03-22T04:48:54.497Z,88.60
2019-03-22T04:54:18.746Z,89.10
2019-03-22T04:59:25.115Z,88.70
2019-03-22T05:04:30.080Z,88.90
2019-03-22T05:09:36.291Z,89.00
2019-03-22T05:14:44.140Z,89.20
2019-03-22T05:19:53.565Z,93.10
2019-03-22T05:24:58.838Z,91.50
2019-03-22T05:30:04.325Z,89.80
2019-03-22T05:35:11.038Z,89.20
2019-03-22T05:40:20.773Z,91.50
2019-03-22T05:45:25.447Z,93.30
2019-03-22T05:50:31.360Z,91.30
2019-03-22T05:55:36.083Z,90.30
2019-03-22T06:00:51.458Z,88.70
2019-03-22T06:05:55.900Z,88.40
2019-03-22T06:10:59.119Z,91.40
2019-03-22T06:16:04.357Z,90.70
2019-03-22T06:21:11.024Z,90.00
2019-03-22T06:26:18.205Z,90.70
2019-03-22T06:31:22.552Z,87.70
2019-03-22T06:36:26.868Z,87.50
2019-03-22T06:41:31.653Z,86.50
2019-03-22T06:46:56.665Z,85.20
2019-03-22T06:52:01.057Z,86.20
2019-03-22T06:57:10.026Z,87.60
2019-03-22T07:02:18.982Z,87.60
2019-03-22T07:07:25.566Z,88.10
2019-03-22T07:12:29.874Z,87.10
2019-03-22T07:17:34.596Z,85.90
2019-03-22T07:22:37.865Z,85.00
2019-03-22T07:27:42.266Z,85.40
2019-03-22T07:32:49.882Z,84.60
2019-03-22T07:37:54.198Z,83.80
2019-03-22T07:42:59.276Z,82.00
2019-03-22T07:48:03.826Z,79.90
2019-03-22T07:53:08.444Z,78.60
2019-03-22T07:59:23.135Z,75.00
2019-03-22T08:04:29.943Z,73.70
2019-03-22T08:09:37.882Z,69.50
2019-03-22T08:14:45.782Z,65.80
2019-03-22T08:19:57.085Z,61.50
2019-03-22T08:25:01.360Z,61.90
2019-03-22T08:30:08.581Z,61.10
2019-03-22T08:35:17.904Z,58.80
2019-03-22T08:40:31.360Z,56.00
2019-03-22T08:45:43.618Z,57.00
2019-03-22T08:50:52.888Z,53.70
2019-03-22T08:55:57.331Z,52.30
2019-03-22T09:01:03.905Z,46.30
2019-03-22T09:06:59.101Z,47.60
2019-03-22T09:12:08.369Z,46.80
2019-03-22T09:23:27.399Z,45.60
2019-03-22T09:28:37.184Z,46.80
2019-03-22T09:33:41.562Z,46.70
2019-03-22T09:38:46.959Z,47.50
2019-03-22T09:44:18.390Z,48.50
2019-03-22T09:49:25.930Z,48.20
2019-03-22T10:13:10.143Z,44.30
2019-03-22T10:18:37.189Z,44.10
2019-03-22T10:23:46.046Z,44.10
2019-03-22T10:41:41.197Z,47.30
2019-03-22T10:46:47.156Z,46.30
2019-03-22T10:51:57.691Z,46.70
2019-03-22T10:56:59.691Z,47.60
2019-03-22T11:02:07.405Z,46.10
2019-03-22T11:07:10.342Z,45.30
2019-03-22T11:12:15.041Z,45.20
2019-03-22T11:17:18.603Z,45.80
2019-03-22T11:22:24.570Z,44.90
2019-03-22T11:27:34.090Z,47.10
2019-03-22T11:32:38.770Z,46.70
2019-03-22T11:37:52.443Z,46.60
2019-03-22T11:42:57.240Z,43.60
2019-03-22T11:48:02.139Z,42.60
2019-03-22T11:53:21.025Z,43.20
2019-03-22T11:58:28.858Z,43.20
2019-03-22T12:03:59.250Z,45.40
2019-03-22T12:09:04.342Z,46.60
2019-03-22T12:14:08.953Z,46.10
2019-03-22T12:19:12.200Z,48.20
2019-03-22T12:24:18.669Z,45.30
2019-03-22T12:29:22.476Z,41.90
2019-03-22T12:34:26.809Z,44.20
2019-03-22T12:39:31.097Z,44.00
2019-03-22T12:44:35.793Z,43.70
2019-03-22T12:49:38.979Z,48.10
2019-03-22T12:54:44.941Z,47.40
2019-03-22T12:59:49.562Z,49.40
2019-03-22T13:04:54.132Z,49.10
2019-03-22T13:09:59.094Z,51.50
2019-03-22T13:15:11.111Z,49.30
2019-03-22T13:20:20.327Z,50.30
2019-03-22T13:25:29.378Z,47.70
2019-03-22T13:30:41.989Z,50.10
2019-03-22T13:35:46.373Z,49.60
2019-03-22T13:40:50.934Z,51.10
2019-03-22T13:45:58.905Z,50.60
2019-03-22T13:51:03.360Z,52.00
2019-03-22T13:56:07.977Z,49.80
2019-03-22T14:01:12.436Z,50.10
2019-03-22T14:06:24.139Z,49.10
2019-03-22T14:11:28.845Z,49.50
2019-03-22T14:16:32.036Z,49.30
2019-03-22T14:21:36.602Z,48.70
2019-03-22T14:26:40.861Z,49.10
2019-03-22T14:31:45.152Z,48.60
2019-03-22T14:36:49.457Z,47.70
2019-03-22T14:41:54.105Z,47.70
2019-03-22T14:46:59.775Z,47.90
2019-03-22T14:52:06.133Z,47.70
2019-03-22T14:57:19.599Z,47.60
2019-03-22T15:02:27.366Z,47.30
2019-03-22T15:07:31.983Z,48.00
2019-03-22T15:12:39.034Z,45.40
2019-03-22T15:17:53.938Z,47.50
2019-03-22T15:23:45.560Z,49.20
2019-03-22T15:29:07.178Z,48.10
2019-03-22T15:34:36.156Z,48.30
2019-03-22T15:39:58.947Z,48.10
2019-03-22T15:45:03.628Z,50.40
2019-03-22T15:50:07.738Z,49.90
2019-03-22T15:55:15.854Z,48.30
2019-03-22T16:00:20.364Z,50.40
2019-03-22T16:05:27.996Z,51.40
2019-03-22T16:10:37.890Z,52.50
2019-03-22T16:15:42.340Z,53.40
2019-03-22T16:21:28.467Z,52.90
2019-03-22T16:26:44.016Z,53.20
2019-03-22T16:31:48.659Z,52.90
2019-03-22T16:36:55.434Z,53.60
2019-03-22T16:42:02.459Z,53.30
2019-03-22T16:47:13.550Z,54.10
2019-03-22T16:52:18.133Z,55.10
2019-03-22T16:57:24.564Z,56.20
2019-03-22T17:02:28.922Z,56.60
2019-03-22T17:07:33.313Z,56.40
2019-03-22T17:12:37.605Z,57.10
2019-03-22T17:17:43.477Z,56.80
2019-03-22T17:22:49.828Z,57.90
2019-03-22T17:27:54.247Z,58.40
2019-03-22T17:32:58.544Z,59.80
2019-03-22T17:38:03.262Z,62.10
2019-03-22T17:43:06.769Z,62.60
2019-03-22T17:48:12.125Z,63.90
2019-03-22T17:53:16.726Z,64.80
2019-03-22T17:58:21.881Z,65.70
2019-03-22T18:03:27.669Z,66.80
2019-03-22T18:08:31.949Z,67.40
2019-03-22T18:13:36.230Z,68.30
2019-03-22T18:18:41.218Z,68.30
2019-03-22T18:23:48.767Z,69.90
2019-03-22T18:28:53.086Z,69.50
2019-03-22T18:33:57.401Z,69.60
2019-03-22T18:39:01.699Z,70.10
2019-03-22T18:44:06.125Z,70.40
2019-03-22T18:49:10.894Z,70.50
2019-03-22T18:54:14.343Z,70.50
2019-03-22T18:59:19.506Z,70.90
2019-03-22T19:04:24.380Z,71.50
2019-03-22T19:09:28.952Z,72.00
2019-03-22T19:14:33.596Z,71.40
2019-03-22T19:19:37.988Z,71.30
2019-03-22T19:24:42.817Z,70.90
2019-03-22T19:29:47.450Z,70.70
2019-03-22T19:34:54.509Z,70.70
2019-03-22T19:39:58.986Z,70.70
2019-03-22T19:45:03.344Z,70.80
2019-03-22T19:50:07.821Z,71.10
2019-03-22T19:55:13.514Z,71.40
2019-03-22T20:00:17.960Z,71.90
2019-03-22T20:05:32.986Z,72.50
2019-03-22T20:10:37.380Z,73.40
2019-03-22T20:15:41.822Z,74.70
2019-03-22T20:20:46.207Z,73.60
2019-03-22T20:25:50.559Z,73.90
2019-03-22T20:30:54.869Z,74.50
2019-03-22T20:35:59.428Z,74.30
2019-03-22T20:41:03.808Z,73.80
2019-03-22T20:46:08.175Z,74.60
2019-03-22T20:51:33.832Z,75.20
2019-03-22T20:56:39.602Z,76.70
2019-03-22T21:01:48.015Z,75.90
2019-03-22T21:06:56.843Z,76.30
2019-03-22T21:12:09.416Z,76.70
2019-03-22T21:17:16.165Z,77.00
2019-03-22T21:22:20.741Z,77.70
2019-03-22T21:27:26.656Z,76.60
2019-03-22T21:32:32.914Z,77.10
2019-03-22T21:37:38.599Z,77.40
2019-03-22T21:42:43.354Z,77.50
2019-03-22T21:47:47.345Z,77.40
2019-03-22T21:52:53.907Z,78.40
2019-03-22T21:57:58.864Z,77.60
2019-03-22T22:03:03.567Z,77.30
2019-03-22T22:08:07.177Z,78.10
2019-03-22T22:13:11.883Z,77.90
2019-03-22T22:18:15.161Z,78.10
2019-03-22T22:23:21.173Z,77.50
2019-03-22T22:28:25.870Z,78.10
2019-03-22T22:41:11.332Z,79.30
2019-03-22T22:46:15.769Z,78.60
2019-03-22T22:51:20.565Z,78.60
2019-03-22T22:57:03.584Z,80.40
2019-03-22T23:02:08.523Z,79.40
2019-03-22T23:07:16.029Z,82.50
2019-03-22T23:12:21.718Z,80.40
2019-03-22T23:17:29.108Z,80.00
2019-03-22T23:22:59.498Z,80.50
2019-03-22T23:28:44.999Z,80.20
2019-03-22T23:33:49.445Z,80.60
2019-03-22T23:39:42.985Z,80.80
2019-03-22T23:44:51.390Z,80.50
2019-03-22T23:49:55.811Z,80.60
2019-03-22T23:55:00.352Z,81.00
